createdAt,value
2019-02-10T00:02:25.603Z,80.99
2019-02-10T00:04:56.335Z,81.14
2019-02-10T00:07:27.042Z,81.39
2019-02-10T00:09:57.728Z,81.74
2019-02-10T00:12:28.298Z,81.98
2019-02-10T00:14:59.031Z,82.16
2019-02-10T00:17:29.990Z,82.37
2019-02-10T00:20:00.716Z,82.64
2019-02-10T00:22:31.292Z,82.65
2019-02-10T00:25:01.879Z,82.65
2019-02-10T00:27:32.344Z,82.87
2019-02-10T00:30:02.994Z,82.76
2019-02-10T00:32:33.964Z,82.60
2019-02-10T00:35:04.730Z,82.50
2019-02-10T00:37:35.209Z,82.24
2019-02-10T00:40:07.399Z,81.98
2019-02-10T00:42:38.291Z,81.79
2019-02-10T00:45:08.871Z,81.72
2019-02-10T00:47:39.409Z,81.60
2019-02-10T00:50:10.025Z,81.60
2019-02-10T00:52:40.621Z,81.35
2019-02-10T00:55:11.415Z,80.01
2019-02-10T00:57:42.063Z,79.54
2019-02-10T01:00:13.385Z,79.78
2019-02-10T01:02:44.006Z,79.53
2019-02-10T01:05:14.612Z,79.75
2019-02-10T01:07:45.408Z,79.79
2019-02-10T01:10:16.952Z,79.31
2019-02-10T01:12:47.632Z,79.22
2019-02-10T01:15:18.353Z,79.21
2019-02-10T01:17:48.975Z,79.25
2019-02-10T01:20:20.321Z,79.29
2019-02-10T01:22:51.099Z,79.60
2019-02-10T01:25:21.766Z,79.50
2019-02-10T01:27:52.285Z,79.66
2019-02-10T01:30:23.272Z,79.70
2019-02-10T01:32:54.554Z,79.72
2019-02-10T01:35:25.320Z,79.96
2019-02-10T01:37:56.095Z,80.01
2019-02-10T01:40:26.720Z,79.99
2019-02-10T01:42:57.271Z,80.02
2019-02-10T01:45:27.933Z,80.04
2019-02-10T01:47:58.506Z,80.17
2019-02-10T01:50:29.419Z,80.17
2019-02-10T01:53:00.619Z,80.08
2019-02-10T01:55:32.922Z,80.00
2019-02-10T01:58:03.799Z,79.93
2019-02-10T02:00:34.487Z,79.95
2019-02-10T02:03:05.224Z,80.06
2019-02-10T02:05:35.731Z,80.03
2019-02-10T02:08:06.384Z,79.95
2019-02-10T02:10:36.921Z,78.75
2019-02-10T02:13:07.431Z,79.19
2019-02-10T02:15:38.206Z,79.43
2019-02-10T02:18:08.711Z,79.55
2019-02-10T02:20:39.250Z,79.63
2019-02-10T02:23:09.790Z,79.77
2019-02-10T02:25:40.201Z,80.00
2019-02-10T02:28:10.611Z,80.38
2019-02-10T02:30:41.167Z,80.07
2019-02-10T02:33:11.702Z,80.25
2019-02-10T02:35:42.242Z,80.35
2019-02-10T02:38:12.786Z,80.28
2019-02-10T02:40:43.351Z,80.16
2019-02-10T02:43:13.760Z,79.84
2019-02-10T02:45:44.333Z,79.22
2019-02-10T02:48:14.893Z,79.15
2019-02-10T02:50:45.390Z,78.36
2019-02-10T02:53:15.945Z,78.05
2019-02-10T02:55:46.550Z,78.19
2019-02-10T02:58:17.090Z,78.61
2019-02-10T03:00:47.683Z,78.68
2019-02-10T03:03:18.349Z,78.66
2019-02-10T03:05:48.980Z,78.05
2019-02-10T03:08:19.462Z,78.18
2019-02-10T03:10:50.045Z,78.72
2019-02-10T03:13:20.581Z,79.10
2019-02-10T03:15:51.175Z,78.92
2019-02-10T03:18:21.736Z,79.47
2019-02-10T03:20:52.233Z,80.06
2019-02-10T03:23:22.669Z,80.19
2019-02-10T03:25:53.097Z,80.60
2019-02-10T03:28:23.699Z,81.19
2019-02-10T03:30:54.385Z,80.58
2019-02-10T03:33:24.852Z,80.36
2019-02-10T03:35:55.431Z,80.48
2019-02-10T03:38:25.850Z,80.74
2019-02-10T03:40:56.450Z,81.07
2019-02-10T03:43:27.011Z,81.23
2019-02-10T03:45:57.613Z,82.01
2019-02-10T03:48:28.151Z,82.59
2019-02-10T03:50:58.730Z,82.68
2019-02-10T03:53:29.299Z,82.96
2019-02-10T03:55:59.901Z,83.03
2019-02-10T03:58:30.405Z,82.85
2019-02-10T04:01:00.993Z,82.37
2019-02-10T04:03:31.401Z,82.53
2019-02-10T04:06:01.895Z,82.27
2019-02-10T04:08:32.459Z,82.54
2019-02-10T04:11:02.832Z,82.73
2019-02-10T04:13:33.509Z,82.61
2019-02-10T04:16:04.030Z,82.63
2019-02-10T04:18:34.410Z,82.54
2019-02-10T04:21:04.908Z,82.69
2019-02-10T04:23:35.381Z,82.61
2019-02-10T04:26:05.982Z,82.40
2019-02-10T04:28:36.389Z,82.26
2019-02-10T04:31:07.073Z,82.09
2019-02-10T04:33:37.580Z,81.71
2019-02-10T04:36:08.069Z,82.06
2019-02-10T04:38:38.438Z,82.53
2019-02-10T04:41:08.999Z,82.73
2019-02-10T04:43:39.444Z,82.89
2019-02-10T04:46:09.909Z,83.04
2019-02-10T04:48:40.307Z,83.19
2019-02-10T04:51:10.718Z,83.41
2019-02-10T04:53:41.146Z,83.36
2019-02-10T04:56:18.449Z,83.44
2019-02-10T04:58:49.418Z,83.56
2019-02-10T05:01:19.765Z,83.54
2019-02-10T05:03:50.330Z,83.70
2019-02-10T05:06:20.802Z,83.52
2019-02-10T05:08:51.299Z,83.34
2019-02-10T05:11:21.654Z,83.34
2019-02-10T05:13:52.075Z,83.44
2019-02-10T05:16:22.634Z,83.32
2019-02-10T05:18:53.110Z,83.10
2019-02-10T05:21:23.607Z,83.20
2019-02-10T05:24:02.759Z,83.28
2019-02-10T05:26:26.321Z,83.31
2019-02-10T05:28:56.773Z,83.21
2019-02-10T05:31:27.329Z,83.16
2019-02-10T05:33:57.807Z,82.95
2019-02-10T05:36:28.278Z,83.05
2019-02-10T05:38:58.859Z,83.22
2019-02-10T05:41:29.444Z,83.19
2019-02-10T05:43:59.886Z,83.08
2019-02-10T05:46:30.400Z,82.91
2019-02-10T05:49:00.990Z,82.30
2019-02-10T05:51:31.423Z,82.18
2019-02-10T05:54:01.965Z,82.61
2019-02-10T05:56:33.312Z,82.07
2019-02-10T05:59:04.206Z,80.92
2019-02-10T06:02:02.446Z,81.27
2019-02-10T06:04:37.559Z,81.57
2019-02-10T06:07:14.049Z,82.19
2019-02-10T06:09:44.550Z,82.57
2019-02-10T06:12:15.245Z,82.65
2019-02-10T06:14:45.849Z,82.84
2019-02-10T06:17:16.428Z,82.88
2019-02-10T06:19:47.079Z,83.29
2019-02-10T06:22:17.716Z,83.23
2019-02-10T06:24:48.422Z,82.93
2019-02-10T06:27:19.200Z,82.74
2019-02-10T06:29:49.835Z,82.50
2019-02-10T06:32:20.440Z,82.38
2019-02-10T06:34:51.044Z,82.22
2019-02-10T06:37:26.445Z,81.08
2019-02-10T06:39:57.404Z,79.39
2019-02-10T06:42:28.830Z,77.92
2019-02-10T06:44:59.791Z,76.49
2019-02-10T06:47:30.390Z,74.91
2019-02-10T06:50:01.656Z,73.38
2019-02-10T06:52:32.373Z,72.38
2019-02-10T06:55:03.201Z,71.03
2019-02-10T06:57:33.882Z,69.07
2019-02-10T07:00:23.451Z,67.63
2019-02-10T07:03:55.211Z,66.61
2019-02-10T07:06:25.832Z,64.46
2019-02-10T07:08:56.609Z,63.98
2019-02-10T07:11:27.194Z,64.48
2019-02-10T07:14:03.218Z,65.02
2019-02-10T07:17:14.355Z,64.83
2019-02-10T07:20:42.293Z,64.11
2019-02-10T07:23:59.528Z,63.79
2019-02-10T07:26:55.280Z,64.48
2019-02-10T07:30:15.269Z,63.26
2019-02-10T07:32:50.579Z,62.18
2019-02-10T07:35:59.515Z,63.35
2019-02-10T07:39:01.921Z,63.47
2019-02-10T07:42:29.855Z,61.39
2019-02-10T07:45:43.120Z,62.01
2019-02-10T07:48:57.224Z,62.59
2019-02-10T07:52:05.178Z,65.29
2019-02-10T07:55:25.585Z,67.71
2019-02-10T07:58:41.102Z,68.59
2019-02-10T08:01:58.902Z,68.42
2019-02-10T08:05:17.950Z,68.32
2019-02-10T08:08:22.417Z,68.71
2019-02-10T08:11:43.845Z,69.49
2019-02-10T08:14:55.991Z,69.44
2019-02-10T08:18:23.857Z,70.49
2019-02-10T08:21:48.421Z,70.11
2019-02-10T08:25:03.771Z,69.84
2019-02-10T08:28:21.225Z,67.91
2019-02-10T08:31:46.169Z,66.64
2019-02-10T08:34:49.765Z,64.89
2019-02-10T08:37:48.721Z,61.57
2019-02-10T08:40:59.619Z,60.98
2019-02-10T08:44:02.413Z,58.19
2019-02-10T08:47:01.657Z,57.15
2019-02-10T08:50:17.669Z,58.05
2019-02-10T08:53:04.851Z,56.90
2019-02-10T08:55:35.481Z,59.45
2019-02-10T08:58:06.068Z,60.15
2019-02-10T09:00:36.729Z,61.42
2019-02-10T09:03:07.311Z,61.32
2019-02-10T09:05:37.931Z,59.96
2019-02-10T09:08:08.610Z,60.86
2019-02-10T09:10:39.139Z,61.96
2019-02-10T09:13:09.941Z,61.79
2019-02-10T09:15:40.677Z,62.00
2019-02-10T09:18:11.563Z,61.83
2019-02-10T09:20:42.204Z,62.50
2019-02-10T09:23:12.767Z,63.79
2019-02-10T09:25:43.411Z,63.59
2019-02-10T09:28:14.083Z,63.51
2019-02-10T09:30:44.825Z,64.85
2019-02-10T09:33:15.434Z,65.18
2019-02-10T09:35:46.151Z,64.92
2019-02-10T09:38:16.819Z,65.80
2019-02-10T09:40:47.485Z,65.50
2019-02-10T09:43:18.097Z,66.26
2019-02-10T09:45:48.683Z,66.82
2019-02-10T09:48:19.221Z,66.62
2019-02-10T09:50:49.841Z,66.78
2019-02-10T09:53:20.403Z,67.61
2019-02-10T09:55:51.090Z,68.28
2019-02-10T09:58:21.596Z,67.31
2019-02-10T10:00:52.181Z,68.27
2019-02-10T10:03:22.815Z,67.48
2019-02-10T10:05:53.429Z,67.67
2019-02-10T10:08:24.232Z,67.86
2019-02-10T10:10:54.877Z,68.37
2019-02-10T10:13:26.291Z,68.21
2019-02-10T10:15:56.853Z,68.81
2019-02-10T10:18:27.471Z,68.56
2019-02-10T10:20:58.034Z,69.49
2019-02-10T10:23:28.628Z,69.08
2019-02-10T10:25:59.283Z,68.09
2019-02-10T10:28:29.830Z,68.32
2019-02-10T10:31:00.397Z,67.57
2019-02-10T10:33:31.987Z,67.73
2019-02-10T10:36:02.856Z,67.17
2019-02-10T10:38:33.422Z,66.86
2019-02-10T10:41:03.931Z,67.66
2019-02-10T10:43:34.706Z,67.04
2019-02-10T10:46:05.206Z,66.57
2019-02-10T10:48:35.903Z,66.11
2019-02-10T10:51:06.529Z,66.64
2019-02-10T10:53:37.119Z,65.60
2019-02-10T10:56:07.650Z,66.21
2019-02-10T10:58:38.158Z,65.55
2019-02-10T11:01:08.751Z,65.11
2019-02-10T11:03:39.256Z,64.98
2019-02-10T11:06:09.944Z,64.11
2019-02-10T11:08:40.589Z,63.24
2019-02-10T11:11:11.344Z,62.04
2019-02-10T11:13:41.941Z,61.50
2019-02-10T11:16:12.556Z,62.32
2019-02-10T11:18:43.639Z,61.92
2019-02-10T11:21:14.181Z,61.60
2019-02-10T11:23:44.681Z,60.92
2019-02-10T11:26:15.250Z,59.94
2019-02-10T11:28:45.926Z,60.15
2019-02-10T11:31:16.520Z,59.19
2019-02-10T11:33:47.150Z,58.70
2019-02-10T11:36:18.621Z,60.46
2019-02-10T11:38:49.180Z,59.80
2019-02-10T11:41:20.124Z,59.35
2019-02-10T11:43:50.950Z,58.76
2019-02-10T11:46:21.642Z,57.88
2019-02-10T11:48:52.755Z,57.54
2019-02-10T11:51:24.988Z,59.09
2019-02-10T11:54:06.451Z,58.48
2019-02-10T11:56:37.233Z,59.04
2019-02-10T11:59:07.819Z,58.96
2019-02-10T12:01:38.563Z,58.08
2019-02-10T12:04:10.444Z,59.35
2019-02-10T12:06:44.466Z,59.51
2019-02-10T12:09:15.209Z,60.20
2019-02-10T12:11:49.471Z,59.51
2019-02-10T12:14:20.132Z,59.28
2019-02-10T12:16:57.855Z,59.29
2019-02-10T12:19:28.379Z,59.38
2019-02-10T12:21:59.135Z,58.81
2019-02-10T12:24:29.775Z,59.29
2019-02-10T12:27:00.491Z,59.18
2019-02-10T12:29:31.194Z,59.46
2019-02-10T12:32:01.923Z,59.04
2019-02-10T12:34:32.570Z,59.36
2019-02-10T12:37:03.321Z,60.00
2019-02-10T12:39:34.147Z,59.92
2019-02-10T12:42:04.801Z,59.73
2019-02-10T12:44:35.466Z,59.15
2019-02-10T12:47:07.312Z,59.99
2019-02-10T12:49:41.111Z,60.92
2019-02-10T12:52:12.996Z,61.33
2019-02-10T12:54:43.640Z,60.65
2019-02-10T12:57:17.907Z,60.71
2019-02-10T12:59:48.556Z,60.02
2019-02-10T13:02:19.278Z,60.81
2019-02-10T13:04:50.057Z,59.05
2019-02-10T13:07:20.744Z,60.73
2019-02-10T13:09:51.480Z,59.62
2019-02-10T13:12:23.433Z,59.15
2019-02-10T13:14:53.925Z,60.34
2019-02-10T13:17:24.640Z,60.58
2019-02-10T13:19:55.207Z,60.46
2019-02-10T13:22:26.982Z,60.19
2019-02-10T13:24:57.531Z,60.45
2019-02-10T13:27:28.207Z,58.37
2019-02-10T13:29:58.981Z,59.10
2019-02-10T13:32:29.853Z,59.53
2019-02-10T13:35:00.655Z,59.19
2019-02-10T13:37:31.225Z,59.95
2019-02-10T13:40:01.988Z,60.18
2019-02-10T13:42:34.526Z,60.14
2019-02-10T13:45:07.308Z,60.78
2019-02-10T13:47:41.518Z,60.90
2019-02-10T13:50:15.821Z,61.06
2019-02-10T13:52:46.589Z,59.42
2019-02-10T13:55:17.122Z,58.48
2019-02-10T13:57:54.293Z,59.21
2019-02-10T14:00:27.468Z,59.83
2019-02-10T14:03:01.492Z,60.01
2019-02-10T14:05:32.271Z,58.13
2019-02-10T14:08:06.859Z,59.24
2019-02-10T14:10:38.030Z,59.45
2019-02-10T14:13:10.273Z,59.92
2019-02-10T14:15:43.380Z,60.03
2019-02-10T14:18:14.000Z,58.35
2019-02-10T14:20:46.482Z,60.30
2019-02-10T14:23:19.490Z,60.57
2019-02-10T14:25:50.024Z,60.10
2019-02-10T14:28:23.560Z,61.19
2019-02-10T14:30:54.319Z,61.05
2019-02-10T14:33:29.522Z,60.85
2019-02-10T14:36:02.462Z,62.31
2019-02-10T14:38:36.043Z,61.71
2019-02-10T14:41:06.205Z,62.63
2019-02-10T14:43:36.810Z,62.31
2019-02-10T14:46:10.581Z,63.40
2019-02-10T14:48:41.774Z,62.92
2019-02-10T14:51:12.404Z,63.45
2019-02-10T14:53:43.209Z,64.26
2019-02-10T14:56:18.029Z,63.45
2019-02-10T14:58:48.886Z,62.77
2019-02-10T15:01:21.699Z,63.77
2019-02-10T15:03:53.343Z,62.91
2019-02-10T15:06:25.201Z,64.05
2019-02-10T15:08:57.107Z,63.70
2019-02-10T15:11:32.388Z,64.12
2019-02-10T15:14:04.385Z,64.18
2019-02-10T15:16:37.531Z,64.74
2019-02-10T15:19:10.977Z,63.24
2019-02-10T15:21:45.827Z,64.26
2019-02-10T15:24:16.518Z,63.65
2019-02-10T15:26:54.204Z,64.24
2019-02-10T15:29:26.229Z,65.06
2019-02-10T15:31:57.198Z,64.01
2019-02-10T15:34:28.345Z,64.15
2019-02-10T15:37:04.817Z,65.03
2019-02-10T15:39:42.226Z,64.77
2019-02-10T15:42:23.330Z,65.92
2019-02-10T15:44:53.970Z,66.64
2019-02-10T15:47:30.012Z,66.31
2019-02-10T15:50:04.861Z,65.73
2019-02-10T15:52:38.482Z,66.23
2019-02-10T15:55:12.091Z,66.12
2019-02-10T15:58:01.516Z,66.50
2019-02-10T16:00:32.950Z,66.65
2019-02-10T16:03:04.260Z,67.06
2019-02-10T16:05:35.516Z,66.77
2019-02-10T16:08:08.871Z,66.35
2019-02-10T16:10:47.880Z,65.92
2019-02-10T16:13:32.772Z,66.14
2019-02-10T16:16:00.442Z,66.38
2019-02-10T16:18:36.007Z,66.23
2019-02-10T16:21:15.143Z,67.12
2019-02-10T16:23:47.180Z,66.94
2019-02-10T16:26:18.934Z,66.13
2019-02-10T16:28:56.250Z,66.91
2019-02-10T16:31:33.616Z,65.99
2019-02-10T16:34:07.893Z,64.95
2019-02-10T16:36:41.060Z,64.22
2019-02-10T16:39:13.154Z,65.35
2019-02-10T16:41:48.137Z,63.34
2019-02-10T16:44:20.380Z,62.94
2019-02-10T16:47:09.599Z,63.18
2019-02-10T16:49:46.336Z,63.61
2019-02-10T16:52:27.059Z,63.09
2019-02-10T16:54:59.819Z,63.54
2019-02-10T16:57:40.915Z,64.46
2019-02-10T17:00:15.901Z,64.72
2019-02-10T17:02:48.309Z,63.33
2019-02-10T17:05:20.745Z,62.61
2019-02-10T17:08:02.733Z,62.48
2019-02-10T17:10:33.765Z,63.14
2019-02-10T17:13:08.575Z,64.18
2019-02-10T17:15:40.974Z,64.88
2019-02-10T17:18:21.859Z,65.25
2019-02-10T17:20:59.415Z,64.32
2019-02-10T17:23:33.365Z,64.92
2019-02-10T17:26:11.710Z,65.25
2019-02-10T17:28:48.936Z,65.93
2019-02-10T17:31:20.880Z,66.06
2019-02-10T17:33:52.960Z,66.08
2019-02-10T17:36:29.502Z,65.59
2019-02-10T17:39:06.739Z,66.66
2019-02-10T17:41:48.281Z,67.08
2019-02-10T17:44:22.497Z,66.76
2019-02-10T17:46:53.248Z,64.75
2019-02-10T17:49:26.295Z,65.37
2019-02-10T17:52:04.708Z,64.73
2019-02-10T17:54:35.095Z,66.26
2019-02-10T17:57:07.280Z,65.92
2019-02-10T17:59:41.486Z,66.17
2019-02-10T18:02:13.250Z,65.39
2019-02-10T18:04:53.515Z,65.73
2019-02-10T18:07:36.319Z,66.27
2019-02-10T18:10:11.967Z,65.72
2019-02-10T18:12:48.380Z,66.17
2019-02-10T18:15:38.935Z,65.96
2019-02-10T18:18:29.873Z,67.03
2019-02-10T18:21:20.510Z,66.61
2019-02-10T18:24:15.432Z,66.82
2019-02-10T18:27:06.776Z,67.47
2019-02-10T18:30:03.084Z,67.52
2019-02-10T18:32:52.624Z,67.25
2019-02-10T18:35:34.350Z,67.81
2019-02-10T18:38:18.775Z,67.98
2019-02-10T18:41:13.298Z,68.51
2019-02-10T18:44:03.272Z,68.15
2019-02-10T18:46:54.740Z,68.95
2019-02-10T18:49:35.792Z,69.28
2019-02-10T18:52:23.903Z,69.48
2019-02-10T18:55:16.600Z,70.24
2019-02-10T18:57:59.864Z,69.99
2019-02-10T19:00:56.491Z,70.11
2019-02-10T19:03:51.931Z,70.27
2019-02-10T19:06:42.506Z,70.52
2019-02-10T19:09:37.105Z,71.55
2019-02-10T19:12:26.617Z,71.11
2019-02-10T19:15:23.237Z,72.00
2019-02-10T19:18:11.386Z,71.96
2019-02-10T19:21:06.415Z,72.11
2019-02-10T19:23:55.920Z,72.75
2019-02-10T19:26:46.440Z,72.26
2019-02-10T19:29:40.523Z,72.51
2019-02-10T19:32:32.606Z,72.67
2019-02-10T19:35:23.060Z,72.73
2019-02-10T19:38:19.215Z,72.86
2019-02-10T19:41:12.262Z,72.72
2019-02-10T19:44:08.300Z,72.83
2019-02-10T19:47:01.971Z,72.92
2019-02-10T19:49:39.841Z,73.06
2019-02-10T19:52:30.613Z,72.73
2019-02-10T19:55:14.438Z,73.20
2019-02-10T19:58:06.964Z,73.64
2019-02-10T20:00:57.598Z,72.81
2019-02-10T20:03:49.296Z,73.31
2019-02-10T20:06:27.966Z,73.45
2019-02-10T20:09:19.900Z,73.76
2019-02-10T20:12:18.865Z,73.62
2019-02-10T20:15:10.615Z,73.66
2019-02-10T20:17:55.075Z,73.96
2019-02-10T20:20:42.329Z,73.87
2019-02-10T20:23:22.840Z,73.52
2019-02-10T20:26:17.644Z,73.61
2019-02-10T20:29:12.280Z,73.82
2019-02-10T20:32:09.985Z,73.51
2019-02-10T20:35:01.951Z,74.07
2019-02-10T20:37:42.872Z,73.74
2019-02-10T20:40:34.797Z,73.89
2019-02-10T20:43:16.368Z,74.29
2019-02-10T20:46:05.871Z,74.85
2019-02-10T20:48:51.485Z,75.08
2019-02-10T20:51:41.490Z,75.24
2019-02-10T20:54:37.752Z,74.93
2019-02-10T20:57:27.828Z,75.35
2019-02-10T21:00:08.928Z,75.91
2019-02-10T21:02:59.821Z,75.84
2019-02-10T21:05:52.996Z,76.15
2019-02-10T21:08:37.492Z,76.09
2019-02-10T21:11:31.105Z,76.72
2019-02-10T21:14:25.392Z,77.65
2019-02-10T21:17:11.639Z,78.05
2019-02-10T21:20:08.766Z,78.43
2019-02-10T21:23:01.700Z,78.80
2019-02-10T21:25:52.833Z,79.64
2019-02-10T21:28:44.270Z,79.62
2019-02-10T21:31:33.840Z,79.60
2019-02-10T21:34:23.987Z,80.91
2019-02-10T21:37:14.915Z,80.55
2019-02-10T21:40:04.883Z,81.57
2019-02-10T21:42:55.514Z,82.04
2019-02-10T21:45:46.165Z,82.06
2019-02-10T21:48:23.090Z,82.23
2019-02-10T21:50:53.651Z,82.41
2019-02-10T21:53:24.256Z,82.29
2019-02-10T21:55:54.899Z,82.45
2019-02-10T21:58:25.767Z,81.93
2019-02-10T22:00:56.393Z,82.51
2019-02-10T22:03:26.901Z,82.90
2019-02-10T22:05:57.446Z,82.95
2019-02-10T22:08:28.196Z,82.94
2019-02-10T22:10:59.100Z,83.17
2019-02-10T22:13:29.765Z,83.44
2019-02-10T22:16:00.440Z,83.23
2019-02-10T22:18:31.171Z,82.98
2019-02-10T22:21:01.998Z,82.87
2019-02-10T22:23:32.522Z,83.03
2019-02-10T22:26:03.320Z,82.92
2019-02-10T22:28:34.206Z,83.02
2019-02-10T22:31:04.934Z,83.37
2019-02-10T22:33:35.579Z,83.19
2019-02-10T22:36:06.104Z,83.12
2019-02-10T22:38:36.761Z,82.92
2019-02-10T22:41:07.440Z,82.92
2019-02-10T22:43:37.931Z,82.81
2019-02-10T22:46:08.609Z,83.07
2019-02-10T22:48:39.143Z,83.16
2019-02-10T22:51:10.261Z,82.99
2019-02-10T22:53:41.186Z,82.54
2019-02-10T22:56:11.830Z,82.43
2019-02-10T22:58:42.536Z,82.23
2019-02-10T23:01:13.121Z,81.83
2019-02-10T23:03:45.380Z,81.59
2019-02-10T23:06:15.972Z,81.32
2019-02-10T23:08:46.560Z,81.18
2019-02-10T23:11:17.260Z,80.86
2019-02-10T23:13:47.920Z,80.11
2019-02-10T23:16:18.881Z,79.63
2019-02-10T23:18:49.503Z,79.54
2019-02-10T23:21:19.922Z,79.30
2019-02-10T23:23:50.841Z,79.44
2019-02-10T23:26:21.552Z,79.17
2019-02-10T23:28:52.080Z,78.82
2019-02-10T23:31:22.704Z,78.65
2019-02-10T23:33:53.566Z,78.77
2019-02-10T23:36:24.081Z,78.32
2019-02-10T23:38:54.510Z,78.41
2019-02-10T23:41:25.085Z,77.76
2019-02-10T23:43:55.669Z,77.99
2019-02-10T23:46:26.164Z,77.84
2019-02-10T23:48:56.740Z,77.63
2019-02-10T23:51:27.300Z,77.60
2019-02-10T23:53:57.911Z,77.23
2019-02-10T23:56:28.550Z,77.57
2019-02-10T23:58:59.068Z,77.84
